createdAt,value
2022-11-07T00:00:39.086Z,264.13
2022-11-07T00:01:39.185Z,262.45
2022-11-07T00:02:39.263Z,264.13
2022-11-07T00:03:39.319Z,262.66
2022-11-07T00:04:39.400Z,262.24
2022-11-07T00:05:39.512Z,262.66
2022-11-07T00:06:39.572Z,262.24
2022-11-07T00:07:39.631Z,261.83
2022-11-07T00:08:39.727Z,262.66
2022-11-07T00:09:39.806Z,261.83
2022-11-07T00:10:39.896Z,262.24
2022-11-07T00:11:40.001Z,263.29
2022-11-07T00:12:40.076Z,261.21
2022-11-07T00:13:40.158Z,261.83
2022-11-07T00:14:40.241Z,262.24
2022-11-07T00:15:40.318Z,261.21
2022-11-07T00:16:40.411Z,262.04
2022-11-07T00:17:40.502Z,261.83
2022-11-07T00:18:40.576Z,261.42
2022-11-07T00:19:46.654Z,262.24
2022-11-07T00:20:40.749Z,263.71
2022-11-07T00:21:40.834Z,262.45
2022-11-07T00:22:40.909Z,262.04
2022-11-07T00:23:41.090Z,263.29
2022-11-07T00:24:41.088Z,263.29
2022-11-07T00:25:41.115Z,262.87
2022-11-07T00:26:41.210Z,263.08
2022-11-07T00:27:41.329Z,262.45
2022-11-07T00:28:41.385Z,262.45
2022-11-07T00:29:41.577Z,261.42
2022-11-07T00:30:41.553Z,262.87
2022-11-07T00:31:41.643Z,262.87
2022-11-07T00:32:41.733Z,262.45
2022-11-07T00:33:41.819Z,261.83
2022-11-07T00:34:41.906Z,261.21
2022-11-07T00:35:42.012Z,263.50
2022-11-07T00:36:42.076Z,262.24
2022-11-07T00:37:42.146Z,262.45
2022-11-07T00:38:42.228Z,262.45
2022-11-07T00:39:42.307Z,263.50
2022-11-07T00:40:42.386Z,262.87
2022-11-07T00:41:42.579Z,263.29
2022-11-07T00:42:42.576Z,264.34
2022-11-07T00:43:42.654Z,262.87
2022-11-07T00:44:42.744Z,263.71
2022-11-07T00:45:42.831Z,262.87
2022-11-07T00:46:42.906Z,262.45
2022-11-07T00:47:43.101Z,263.50
2022-11-07T00:48:43.067Z,264.77
2022-11-07T00:49:43.147Z,262.66
2022-11-07T00:50:49.198Z,263.29
2022-11-07T00:51:43.304Z,262.45
2022-11-07T00:52:43.390Z,262.04
2022-11-07T00:53:43.593Z,262.66
2022-11-07T00:54:43.574Z,262.66
2022-11-07T00:55:43.655Z,262.24
2022-11-07T00:56:43.721Z,262.24
2022-11-07T00:57:43.807Z,262.87
2022-11-07T00:58:43.905Z,262.45
2022-11-07T00:59:43.982Z,262.45
2022-11-07T01:00:44.078Z,262.45
2022-11-07T01:01:44.316Z,263.29
2022-11-07T01:02:44.345Z,263.50
2022-11-07T01:03:44.316Z,264.34
2022-11-07T01:04:44.389Z,263.50
2022-11-07T01:05:44.606Z,263.29
2022-11-07T01:06:44.579Z,263.71
2022-11-07T01:07:44.670Z,263.29
2022-11-07T01:08:44.745Z,263.08
2022-11-07T01:09:44.843Z,263.08
2022-11-07T01:10:44.929Z,262.87
2022-11-07T01:11:45.006Z,263.08
2022-11-07T01:12:45.083Z,262.24
2022-11-07T01:13:45.169Z,262.45
2022-11-07T01:14:45.252Z,263.92
2022-11-07T01:15:45.342Z,262.66
2022-11-07T01:16:45.447Z,262.87
2022-11-07T01:17:45.503Z,263.29
2022-11-07T01:18:45.565Z,262.66
2022-11-07T01:19:45.661Z,263.29
2022-11-07T01:20:45.739Z,263.71
2022-11-07T01:21:51.814Z,263.29
2022-11-07T01:22:45.925Z,262.45
2022-11-07T01:23:46.036Z,263.50
2022-11-07T01:24:46.112Z,263.71
2022-11-07T01:25:46.188Z,264.13
2022-11-07T01:26:46.268Z,264.77
2022-11-07T01:27:46.368Z,263.71
2022-11-07T01:28:46.472Z,263.50
2022-11-07T01:29:46.557Z,263.71
2022-11-07T01:30:46.643Z,261.83
2022-11-07T01:31:46.739Z,263.71
2022-11-07T01:32:46.842Z,263.92
2022-11-07T01:33:46.932Z,264.55
2022-11-07T01:34:47.090Z,262.66
2022-11-07T01:35:47.059Z,264.77
2022-11-07T01:36:47.147Z,263.08
2022-11-07T01:37:47.231Z,264.77
2022-11-07T01:38:47.302Z,263.71
2022-11-07T01:39:47.378Z,263.92
2022-11-07T01:40:47.458Z,264.98
2022-11-07T01:41:47.516Z,263.92
2022-11-07T01:42:47.598Z,262.45
2022-11-07T01:43:47.687Z,263.71
2022-11-07T01:44:47.760Z,264.55
2022-11-07T01:45:47.822Z,263.50
2022-11-07T01:46:47.995Z,262.66
2022-11-07T01:47:47.983Z,262.04
2022-11-07T01:48:48.058Z,262.87
2022-11-07T01:49:48.144Z,263.29
2022-11-07T01:50:48.226Z,263.92
2022-11-07T01:51:48.321Z,264.34
2022-11-07T01:52:54.682Z,265.40
2022-11-07T01:53:48.501Z,262.87
2022-11-07T01:54:48.586Z,262.87
2022-11-07T01:55:48.668Z,264.98
2022-11-07T01:56:48.754Z,264.13
2022-11-07T01:57:48.830Z,263.71
2022-11-07T01:58:48.930Z,262.66
2022-11-07T01:59:49.004Z,263.08
2022-11-07T02:00:49.083Z,262.66
2022-11-07T02:01:49.314Z,263.71
2022-11-07T02:02:49.398Z,262.45
2022-11-07T02:03:49.325Z,263.92
2022-11-07T02:04:49.500Z,263.29
2022-11-07T02:05:49.499Z,264.77
2022-11-07T02:06:49.570Z,262.45
2022-11-07T02:07:49.634Z,262.66
2022-11-07T02:08:49.727Z,262.87
2022-11-07T02:09:49.821Z,264.98
2022-11-07T02:10:49.930Z,264.34
2022-11-07T02:11:49.981Z,263.71
2022-11-07T02:12:50.078Z,263.29
2022-11-07T02:13:50.160Z,264.34
2022-11-07T02:14:50.244Z,264.13
2022-11-07T02:15:50.335Z,264.55
2022-11-07T02:16:50.513Z,264.34
2022-11-07T02:17:50.517Z,264.98
2022-11-07T02:18:50.599Z,264.55
2022-11-07T02:19:50.697Z,262.87
2022-11-07T02:20:50.781Z,264.77
2022-11-07T02:21:50.866Z,264.98
2022-11-07T02:22:50.969Z,263.50
2022-11-07T02:23:56.995Z,263.29
2022-11-07T02:24:51.110Z,263.50
2022-11-07T02:25:51.190Z,263.71
2022-11-07T02:26:51.295Z,264.34
2022-11-07T02:27:51.389Z,264.55
2022-11-07T02:28:51.596Z,265.19
2022-11-07T02:29:51.558Z,264.55
2022-11-07T02:30:51.641Z,263.92
2022-11-07T02:31:51.732Z,263.92
2022-11-07T02:32:51.812Z,263.71
2022-11-07T02:33:51.901Z,264.55
2022-11-07T02:34:52.104Z,263.50
2022-11-07T02:35:52.062Z,266.04
2022-11-07T02:36:52.147Z,264.13
2022-11-07T02:37:52.211Z,264.55
2022-11-07T02:38:52.287Z,264.98
2022-11-07T02:39:52.391Z,265.40
2022-11-07T02:40:52.597Z,265.19
2022-11-07T02:41:52.604Z,264.98
2022-11-07T02:42:52.661Z,263.50
2022-11-07T02:43:52.735Z,264.55
2022-11-07T02:44:52.818Z,264.55
2022-11-07T02:45:52.915Z,264.77
2022-11-07T02:46:53.086Z,263.71
2022-11-07T02:47:53.051Z,263.29
2022-11-07T02:48:53.135Z,264.13
2022-11-07T02:49:53.291Z,263.71
2022-11-07T02:50:53.297Z,262.87
2022-11-07T02:51:53.381Z,263.71
2022-11-07T02:52:53.591Z,263.29
2022-11-07T02:53:53.574Z,264.55
2022-11-07T02:54:59.622Z,264.77
2022-11-07T02:55:53.712Z,265.19
2022-11-07T02:56:53.798Z,264.34
2022-11-07T02:57:53.860Z,263.71
2022-11-07T02:58:53.955Z,264.98
2022-11-07T02:59:54.031Z,263.71
2022-11-07T03:00:54.118Z,264.55
2022-11-07T03:01:54.358Z,263.71
2022-11-07T03:02:54.432Z,263.92
2022-11-07T03:03:54.340Z,263.29
2022-11-07T03:04:54.436Z,264.13
2022-11-07T03:05:54.477Z,264.13
2022-11-07T03:06:54.564Z,263.71
2022-11-07T03:07:54.653Z,265.83
2022-11-07T03:08:54.772Z,264.98
2022-11-07T03:09:54.841Z,264.34
2022-11-07T03:10:54.916Z,264.34
2022-11-07T03:11:54.994Z,264.34
2022-11-07T03:12:55.074Z,264.34
2022-11-07T03:13:55.159Z,264.13
2022-11-07T03:14:55.276Z,263.71
2022-11-07T03:15:55.499Z,264.98
2022-11-07T03:16:55.433Z,264.98
2022-11-07T03:17:55.523Z,263.50
2022-11-07T03:18:55.595Z,264.77
2022-11-07T03:19:55.668Z,264.13
2022-11-07T03:20:55.883Z,264.34
2022-11-07T03:21:55.837Z,264.98
2022-11-07T03:22:55.925Z,264.34
2022-11-07T03:23:55.996Z,263.08
2022-11-07T03:24:56.078Z,262.66
2022-11-07T03:26:02.715Z,264.13
2022-11-07T03:26:56.261Z,264.34
2022-11-07T03:27:56.350Z,264.34
2022-11-07T03:28:56.435Z,263.08
2022-11-07T03:29:56.517Z,264.55
2022-11-07T03:30:56.599Z,263.08
2022-11-07T03:31:56.721Z,264.55
2022-11-07T03:32:56.781Z,265.40
2022-11-07T03:33:56.875Z,264.13
2022-11-07T03:34:56.962Z,263.71
2022-11-07T03:35:57.007Z,264.55
2022-11-07T03:36:57.073Z,263.29
2022-11-07T03:37:57.179Z,264.55
2022-11-07T03:38:57.274Z,264.34
2022-11-07T03:39:57.352Z,264.13
2022-11-07T03:40:57.436Z,264.13
2022-11-07T03:41:57.514Z,264.34
2022-11-07T03:42:57.716Z,263.50
2022-11-07T03:43:57.681Z,264.55
2022-11-07T03:44:57.761Z,264.55
2022-11-07T03:45:57.848Z,264.77
2022-11-07T03:46:57.950Z,263.50
2022-11-07T03:47:58.033Z,262.87
2022-11-07T03:48:58.242Z,264.34
2022-11-07T03:49:58.185Z,263.08
2022-11-07T03:50:58.257Z,263.71
2022-11-07T03:51:58.336Z,265.40
2022-11-07T03:52:58.418Z,264.98
2022-11-07T03:53:58.617Z,264.34
2022-11-07T03:54:58.596Z,264.98
2022-11-07T03:55:58.667Z,264.98
2022-11-07T03:57:05.610Z,264.34
2022-11-07T03:57:58.847Z,263.50
2022-11-07T03:58:58.918Z,264.77
2022-11-07T03:59:59.002Z,262.87
2022-11-07T04:00:59.071Z,263.92
2022-11-07T04:01:59.306Z,264.34
2022-11-07T04:02:59.338Z,263.92
2022-11-07T04:03:59.335Z,264.77
2022-11-07T04:04:59.417Z,264.55
2022-11-07T04:05:59.607Z,263.29
2022-11-07T04:06:59.569Z,264.34
2022-11-07T04:07:59.649Z,264.98
2022-11-07T04:08:59.726Z,264.13
2022-11-07T04:09:59.790Z,263.29
2022-11-07T04:10:59.897Z,262.66
2022-11-07T04:11:59.970Z,264.34
2022-11-07T04:13:00.029Z,263.29
2022-11-07T04:14:00.117Z,264.34
2022-11-07T04:15:00.228Z,263.71
2022-11-07T04:16:00.274Z,264.55
2022-11-07T04:17:00.454Z,263.50
2022-11-07T04:18:00.431Z,264.77
2022-11-07T04:19:00.519Z,263.50
2022-11-07T04:20:00.621Z,263.50
2022-11-07T04:21:00.710Z,264.55
2022-11-07T04:22:00.790Z,262.87
2022-11-07T04:23:00.967Z,262.45
2022-11-07T04:24:00.929Z,263.08
2022-11-07T04:25:01.004Z,263.29
2022-11-07T04:26:01.074Z,264.77
2022-11-07T04:27:01.142Z,264.13
2022-11-07T04:28:08.144Z,263.50
2022-11-07T04:29:01.302Z,264.13
2022-11-07T04:30:01.372Z,264.13
2022-11-07T04:31:01.454Z,263.08
2022-11-07T04:32:02.526Z,263.08
2022-11-07T04:33:01.639Z,262.87
2022-11-07T04:34:01.822Z,264.55
2022-11-07T04:35:01.789Z,263.29
2022-11-07T04:36:01.874Z,264.13
2022-11-07T04:37:01.963Z,263.50
2022-11-07T04:38:02.073Z,263.71
2022-11-07T04:39:02.140Z,264.55
2022-11-07T04:40:02.360Z,262.66
2022-11-07T04:41:02.326Z,263.71
2022-11-07T04:42:02.424Z,262.87
2022-11-07T04:43:02.515Z,264.13
2022-11-07T04:44:02.597Z,261.21
2022-11-07T04:45:02.698Z,262.87
2022-11-07T04:46:02.760Z,263.08
2022-11-07T04:47:02.865Z,263.29
2022-11-07T04:48:02.963Z,263.08
2022-11-07T04:49:03.021Z,263.71
2022-11-07T04:50:03.105Z,262.24
2022-11-07T04:51:03.219Z,262.87
2022-11-07T04:52:03.301Z,263.08
2022-11-07T04:53:03.384Z,263.29
2022-11-07T04:54:03.473Z,262.24
2022-11-07T04:55:03.552Z,263.29
2022-11-07T04:56:03.675Z,263.71
2022-11-07T04:57:03.726Z,263.50
2022-11-07T04:58:03.806Z,263.50
2022-11-07T04:59:09.854Z,262.87
2022-11-07T05:00:03.947Z,261.83
2022-11-07T05:01:04.042Z,262.87
2022-11-07T05:02:04.305Z,262.66
2022-11-07T05:03:04.285Z,263.08
2022-11-07T05:04:04.288Z,263.08
2022-11-07T05:05:04.390Z,262.87
2022-11-07T05:06:04.460Z,262.24
2022-11-07T05:07:04.555Z,262.87
2022-11-07T05:08:04.599Z,263.29
2022-11-07T05:09:04.688Z,262.45
2022-11-07T05:10:08.358Z,263.92
2022-11-07T05:11:04.876Z,262.87
2022-11-07T05:12:04.966Z,264.34
2022-11-07T05:13:05.200Z,262.66
2022-11-07T05:14:05.137Z,263.08
2022-11-07T05:15:05.227Z,262.87
2022-11-07T05:16:05.282Z,263.50
2022-11-07T05:17:05.371Z,262.87
2022-11-07T05:18:05.466Z,263.71
2022-11-07T05:19:05.996Z,262.45
2022-11-07T05:20:05.664Z,262.66
2022-11-07T05:21:05.687Z,263.50
2022-11-07T05:22:05.815Z,264.34
2022-11-07T05:23:05.861Z,262.87
2022-11-07T05:24:05.964Z,263.71
2022-11-07T05:25:06.010Z,262.04
2022-11-07T05:26:06.113Z,263.50
2022-11-07T05:27:06.158Z,263.71
2022-11-07T05:28:06.228Z,264.55
2022-11-07T05:29:06.310Z,263.92
2022-11-07T05:30:12.764Z,263.29
2022-11-07T05:31:06.469Z,263.08
2022-11-07T05:32:06.562Z,262.24
2022-11-07T05:33:06.635Z,262.87
2022-11-07T05:34:10.842Z,262.24
2022-11-07T05:35:06.801Z,263.29
2022-11-07T05:36:06.898Z,262.24
2022-11-07T05:37:06.946Z,263.29
2022-11-07T05:38:07.045Z,263.29
2022-11-07T05:39:07.125Z,264.55
2022-11-07T05:40:07.236Z,263.50
2022-11-07T05:41:07.317Z,263.92
2022-11-07T05:42:07.476Z,263.71
2022-11-07T05:43:07.464Z,263.71
2022-11-07T05:44:07.540Z,264.13
2022-11-07T05:45:07.653Z,264.13
2022-11-07T05:46:07.702Z,263.71
2022-11-07T05:47:07.792Z,264.34
2022-11-07T05:48:07.977Z,264.55
2022-11-07T05:49:07.953Z,265.62
2022-11-07T05:50:08.029Z,263.50
2022-11-07T05:51:08.106Z,264.34
2022-11-07T05:52:08.223Z,264.98
2022-11-07T05:53:08.425Z,264.98
2022-11-07T05:54:08.369Z,264.55
2022-11-07T05:55:08.429Z,264.13
2022-11-07T05:56:08.520Z,265.19
2022-11-07T05:57:08.612Z,264.55
2022-11-07T05:58:08.685Z,265.19
2022-11-07T05:59:08.877Z,265.19
2022-11-07T06:00:08.822Z,263.71
2022-11-07T06:01:14.878Z,265.40
2022-11-07T06:02:09.088Z,263.50
2022-11-07T06:03:09.127Z,263.92
2022-11-07T06:04:09.164Z,263.50
2022-11-07T06:05:09.338Z,261.83
2022-11-07T06:06:09.325Z,263.50
2022-11-07T06:07:09.401Z,263.08
2022-11-07T06:08:09.485Z,265.19
2022-11-07T06:09:09.556Z,263.50
2022-11-07T06:10:09.760Z,264.98
2022-11-07T06:11:09.736Z,265.40
2022-11-07T06:12:09.826Z,264.98
2022-11-07T06:13:09.886Z,263.92
2022-11-07T06:14:10.002Z,265.62
2022-11-07T06:15:10.049Z,264.34
2022-11-07T06:16:10.155Z,264.77
2022-11-07T06:17:10.217Z,266.26
2022-11-07T06:18:10.274Z,263.50
2022-11-07T06:19:11.187Z,264.55
2022-11-07T06:20:10.449Z,264.34
2022-11-07T06:21:10.561Z,265.40
2022-11-07T06:22:10.609Z,264.55
2022-11-07T06:23:10.703Z,263.92
2022-11-07T06:24:15.056Z,265.19
2022-11-07T06:25:10.885Z,263.71
2022-11-07T06:26:10.972Z,263.50
2022-11-07T06:27:11.163Z,265.40
2022-11-07T06:28:11.128Z,263.71
2022-11-07T06:29:11.208Z,264.34
2022-11-07T06:30:11.294Z,265.19
2022-11-07T06:31:11.378Z,265.40
2022-11-07T06:32:17.795Z,263.92
2022-11-07T06:33:11.554Z,263.92
2022-11-07T06:34:11.649Z,265.40
2022-11-07T06:35:11.735Z,264.13
2022-11-07T06:36:11.845Z,265.40
2022-11-07T06:37:11.893Z,264.55
2022-11-07T06:38:12.118Z,263.92
2022-11-07T06:39:12.050Z,263.50
2022-11-07T06:40:12.133Z,265.83
2022-11-07T06:41:12.215Z,264.77
2022-11-07T06:42:12.303Z,265.62
2022-11-07T06:43:12.815Z,264.77
2022-11-07T06:44:12.619Z,266.26
2022-11-07T06:45:12.572Z,265.19
2022-11-07T06:46:12.650Z,265.19
2022-11-07T06:47:12.743Z,265.83
2022-11-07T06:48:12.821Z,263.50
2022-11-07T06:49:12.897Z,264.98
2022-11-07T06:50:13.010Z,263.92
2022-11-07T06:51:13.093Z,265.40
2022-11-07T06:52:13.180Z,264.98
2022-11-07T06:53:13.942Z,265.19
2022-11-07T06:54:13.341Z,263.29
2022-11-07T06:55:13.432Z,265.40
2022-11-07T06:56:13.520Z,263.92
2022-11-07T06:57:13.598Z,264.55
2022-11-07T06:58:13.683Z,264.13
2022-11-07T06:59:13.750Z,264.34
2022-11-07T07:00:13.830Z,262.87
2022-11-07T07:01:14.057Z,264.98
2022-11-07T07:02:25.939Z,264.55
2022-11-07T07:04:28.849Z,322.65
2022-11-07T07:05:29.942Z,311.99
2022-11-07T07:06:30.020Z,304.52
2022-11-07T07:07:30.207Z,300.10
2022-11-07T07:08:30.177Z,294.48
2022-11-07T07:09:30.254Z,290.60
2022-11-07T07:10:30.447Z,288.07
2022-11-07T07:11:30.406Z,287.07
2022-11-07T07:12:30.609Z,285.33
2022-11-07T07:13:30.560Z,284.11
2022-11-07T07:14:30.654Z,280.97
2022-11-07T07:15:42.089Z,280.97
2022-11-07T07:16:30.813Z,279.54
2022-11-07T07:17:30.907Z,277.66
2022-11-07T07:18:30.993Z,277.66
2022-11-07T07:19:31.068Z,277.20
2022-11-07T07:20:31.147Z,276.27
2022-11-07T07:21:31.221Z,275.81
2022-11-07T07:22:31.332Z,274.44
2022-11-07T07:23:31.407Z,274.89
2022-11-07T07:24:31.530Z,273.98
2022-11-07T07:25:31.573Z,274.67
2022-11-07T07:26:31.651Z,273.98
2022-11-07T07:27:31.730Z,273.08
2022-11-07T07:28:31.810Z,272.63
2022-11-07T07:29:31.945Z,271.06
2022-11-07T07:30:32.072Z,271.51
2022-11-07T07:31:32.056Z,272.18
2022-11-07T07:32:32.116Z,270.84
2022-11-07T07:33:32.196Z,270.84
2022-11-07T07:34:32.306Z,269.30
2022-11-07T07:35:38.561Z,269.73
2022-11-07T07:36:32.448Z,270.17
2022-11-07T07:37:32.538Z,270.17
2022-11-07T07:38:32.618Z,270.62
2022-11-07T07:39:32.699Z,269.73
2022-11-07T07:40:32.795Z,267.98
2022-11-07T07:41:37.561Z,269.73
2022-11-07T07:42:32.952Z,269.08
2022-11-07T07:43:33.019Z,269.30
2022-11-07T07:44:33.108Z,268.86
2022-11-07T07:45:33.183Z,267.77
2022-11-07T07:46:33.274Z,269.95
2022-11-07T07:47:33.468Z,268.42
2022-11-07T07:48:33.438Z,268.42
2022-11-07T07:49:33.531Z,269.08
2022-11-07T07:50:33.598Z,268.42
2022-11-07T07:51:33.692Z,268.20
2022-11-07T07:52:33.756Z,268.20
2022-11-07T07:53:33.845Z,268.42
2022-11-07T07:54:33.923Z,268.86
2022-11-07T07:55:34.036Z,269.30
2022-11-07T07:56:34.119Z,268.64
2022-11-07T07:57:34.194Z,268.64
2022-11-07T07:58:34.263Z,268.20
2022-11-07T07:59:34.347Z,268.86
2022-11-07T08:00:34.509Z,267.33
2022-11-07T08:01:34.651Z,267.12
2022-11-07T08:02:34.834Z,268.42
2022-11-07T08:03:57.563Z,268.20
2022-11-07T08:04:34.889Z,267.55
2022-11-07T08:05:34.875Z,266.26
2022-11-07T08:06:40.925Z,266.90
2022-11-07T08:07:35.056Z,267.77
2022-11-07T08:08:38.215Z,269.30
2022-11-07T08:09:35.258Z,268.20
2022-11-07T08:10:43.392Z,267.98
2022-11-07T08:11:35.415Z,267.77
2022-11-07T08:12:35.491Z,267.12
2022-11-07T08:13:35.577Z,266.69
2022-11-07T08:14:35.665Z,265.83
2022-11-07T08:15:35.865Z,266.04
2022-11-07T08:16:35.867Z,267.98
2022-11-07T08:17:35.931Z,266.04
2022-11-07T08:18:36.015Z,267.77
2022-11-07T08:19:36.098Z,267.98
2022-11-07T08:20:36.186Z,265.62
2022-11-07T08:21:36.277Z,267.55
2022-11-07T08:22:36.321Z,268.86
2022-11-07T08:23:36.398Z,268.20
2022-11-07T08:24:36.472Z,267.12
2022-11-07T08:25:36.559Z,267.33
2022-11-07T08:26:36.760Z,266.26
2022-11-07T08:27:36.728Z,266.90
2022-11-07T08:28:36.824Z,266.69
2022-11-07T08:29:36.903Z,266.90
2022-11-07T08:30:36.990Z,266.26
2022-11-07T08:31:37.097Z,266.90
2022-11-07T08:32:37.193Z,266.47
2022-11-07T08:33:37.323Z,267.98
2022-11-07T08:34:37.317Z,267.33
2022-11-07T08:35:42.218Z,267.33
2022-11-07T08:36:37.630Z,267.12
2022-11-07T08:37:44.015Z,266.69
2022-11-07T08:38:37.706Z,267.12
2022-11-07T08:39:37.779Z,267.33
2022-11-07T08:40:37.861Z,266.47
2022-11-07T08:41:37.943Z,265.19
2022-11-07T08:42:38.026Z,264.55
2022-11-07T08:43:38.234Z,266.47
2022-11-07T08:44:38.206Z,267.33
2022-11-07T08:45:38.301Z,266.26
2022-11-07T08:46:38.387Z,267.55
2022-11-07T08:47:38.476Z,266.47
2022-11-07T08:48:38.719Z,267.33
2022-11-07T08:49:38.634Z,264.77
2022-11-07T08:50:38.757Z,265.40
2022-11-07T08:51:38.805Z,266.04
2022-11-07T08:52:38.891Z,266.26
2022-11-07T08:53:38.975Z,266.26
2022-11-07T08:54:39.181Z,266.04
2022-11-07T08:55:39.156Z,265.83
2022-11-07T08:56:39.244Z,265.83
2022-11-07T08:57:39.338Z,267.55
2022-11-07T08:58:39.424Z,266.04
2022-11-07T08:59:39.550Z,267.77
2022-11-07T09:00:39.640Z,264.34
2022-11-07T09:01:56.008Z,266.26
2022-11-07T09:03:52.830Z,264.34
2022-11-07T09:04:40.037Z,265.83
2022-11-07T09:05:39.992Z,265.19
2022-11-07T09:06:40.055Z,266.04
2022-11-07T09:07:40.127Z,266.26
2022-11-07T09:08:46.196Z,265.19
2022-11-07T09:09:40.277Z,267.33
2022-11-07T09:10:40.359Z,265.40
2022-11-07T09:11:40.543Z,266.04
2022-11-07T09:12:40.536Z,264.13
2022-11-07T09:13:40.623Z,264.34
2022-11-07T09:14:40.708Z,265.40
2022-11-07T09:15:43.756Z,265.19
2022-11-07T09:16:40.898Z,266.04
2022-11-07T09:17:41.083Z,266.47
2022-11-07T09:18:41.047Z,265.83
2022-11-07T09:19:41.115Z,264.34
2022-11-07T09:20:41.202Z,266.04
2022-11-07T09:21:41.277Z,265.62
2022-11-07T09:22:41.342Z,263.92
2022-11-07T09:23:41.478Z,264.98
2022-11-07T09:24:41.513Z,264.98
2022-11-07T09:25:41.636Z,264.98
2022-11-07T09:26:41.693Z,266.04
2022-11-07T09:27:41.780Z,265.19
2022-11-07T09:28:45.662Z,265.40
2022-11-07T09:29:41.932Z,265.62
2022-11-07T09:30:42.527Z,264.34
2022-11-07T09:31:42.081Z,264.77
2022-11-07T09:32:45.353Z,264.34
2022-11-07T09:33:42.242Z,265.19
2022-11-07T09:34:42.347Z,265.19
2022-11-07T09:35:42.390Z,264.77
2022-11-07T09:36:42.487Z,264.34
2022-11-07T09:37:42.578Z,264.55
2022-11-07T09:38:42.668Z,263.50
2022-11-07T09:39:49.143Z,264.77
2022-11-07T09:40:42.832Z,264.77
2022-11-07T09:41:42.901Z,263.50
2022-11-07T09:42:42.980Z,264.13
2022-11-07T09:43:43.081Z,263.08
2022-11-07T09:44:43.170Z,264.34
2022-11-07T09:45:43.359Z,264.34
2022-11-07T09:46:43.310Z,262.87
2022-11-07T09:47:43.412Z,263.71
2022-11-07T09:48:43.491Z,263.50
2022-11-07T09:49:43.572Z,263.08
2022-11-07T09:50:43.799Z,263.71
2022-11-07T09:51:43.758Z,262.66
2022-11-07T09:52:43.861Z,262.87
2022-11-07T09:53:43.924Z,262.45
2022-11-07T09:54:46.490Z,262.66
2022-11-07T09:55:44.077Z,262.87
2022-11-07T09:56:44.268Z,262.87
2022-11-07T09:57:44.398Z,262.04
2022-11-07T09:58:44.350Z,263.29
2022-11-07T09:59:44.429Z,262.66
2022-11-07T10:00:44.556Z,261.00
2022-11-07T10:01:44.835Z,262.04
2022-11-07T10:02:45.149Z,262.45
2022-11-07T10:04:10.227Z,262.45
2022-11-07T10:04:44.836Z,261.21
2022-11-07T10:05:44.924Z,261.00
2022-11-07T10:06:45.014Z,261.21
2022-11-07T10:07:45.196Z,261.21
2022-11-07T10:08:45.189Z,261.62
2022-11-07T10:09:45.237Z,260.18
2022-11-07T10:10:51.284Z,260.39
2022-11-07T10:11:45.399Z,261.00
2022-11-07T10:12:45.574Z,260.39
2022-11-07T10:13:45.540Z,259.36
2022-11-07T10:14:45.618Z,260.80
2022-11-07T10:15:45.718Z,260.59
2022-11-07T10:16:45.804Z,260.18
2022-11-07T10:17:45.977Z,259.16
2022-11-07T10:18:45.969Z,259.77
2022-11-07T10:19:46.032Z,259.57
2022-11-07T10:20:46.171Z,260.80
2022-11-07T10:21:46.185Z,258.76
2022-11-07T10:22:46.278Z,259.98
2022-11-07T10:23:46.369Z,259.16
2022-11-07T10:24:46.572Z,259.77
2022-11-07T10:25:46.535Z,259.57
2022-11-07T10:26:46.617Z,260.39
2022-11-07T10:27:46.676Z,259.77
2022-11-07T10:28:46.771Z,260.18
2022-11-07T10:29:46.851Z,260.18
2022-11-07T10:30:46.986Z,260.18
2022-11-07T10:31:47.033Z,260.39
2022-11-07T10:32:47.120Z,260.59
2022-11-07T10:33:47.221Z,260.18
2022-11-07T10:34:53.158Z,260.80
2022-11-07T10:35:47.369Z,258.55
2022-11-07T10:36:47.555Z,259.77
2022-11-07T10:37:47.521Z,260.18
2022-11-07T10:38:47.583Z,260.18
2022-11-07T10:39:47.657Z,259.98
2022-11-07T10:40:47.746Z,260.39
2022-11-07T10:41:54.193Z,258.96
2022-11-07T10:42:47.910Z,259.98
2022-11-07T10:43:47.992Z,259.98
2022-11-07T10:44:48.082Z,260.39
2022-11-07T10:45:48.140Z,260.18
2022-11-07T10:46:51.536Z,260.59
2022-11-07T10:47:48.325Z,259.36
2022-11-07T10:48:48.372Z,259.98
2022-11-07T10:49:48.458Z,260.39
2022-11-07T10:50:48.558Z,260.39
2022-11-07T10:51:48.614Z,259.36
2022-11-07T10:52:48.702Z,260.80
2022-11-07T10:53:48.785Z,260.80
2022-11-07T10:54:48.867Z,260.18
2022-11-07T10:55:48.930Z,260.80
2022-11-07T10:56:48.985Z,262.04
2022-11-07T10:57:49.090Z,259.77
2022-11-07T10:58:49.181Z,259.36
2022-11-07T10:59:49.250Z,259.98
2022-11-07T11:00:49.371Z,259.36
2022-11-07T11:01:49.498Z,261.21
2022-11-07T11:02:49.495Z,259.77
2022-11-07T11:03:49.590Z,260.80
2022-11-07T11:04:51.102Z,259.77
2022-11-07T11:05:49.722Z,259.77
2022-11-07T11:06:49.800Z,260.59
2022-11-07T11:07:49.890Z,260.39
2022-11-07T11:08:49.980Z,259.57
2022-11-07T11:09:50.090Z,261.00
2022-11-07T11:10:50.129Z,260.39
2022-11-07T11:11:50.216Z,260.39
2022-11-07T11:12:56.274Z,259.98
2022-11-07T11:13:50.362Z,260.59
2022-11-07T11:14:50.566Z,259.57
2022-11-07T11:15:50.522Z,260.18
2022-11-07T11:16:50.678Z,259.77
2022-11-07T11:17:51.486Z,259.98
2022-11-07T11:18:50.779Z,259.57
2022-11-07T11:19:50.864Z,260.18
2022-11-07T11:20:51.051Z,259.16
2022-11-07T11:21:51.020Z,259.57
2022-11-07T11:22:51.109Z,259.36
2022-11-07T11:23:51.204Z,259.77
2022-11-07T11:24:51.275Z,260.18
2022-11-07T11:25:51.342Z,259.57
2022-11-07T11:26:51.445Z,259.57
2022-11-07T11:27:51.517Z,260.18
2022-11-07T11:28:51.614Z,259.77
2022-11-07T11:29:51.696Z,259.16
2022-11-07T11:30:51.772Z,260.18
2022-11-07T11:31:51.872Z,259.36
2022-11-07T11:32:51.952Z,259.36
2022-11-07T11:33:52.021Z,259.77
2022-11-07T11:34:52.101Z,258.96
2022-11-07T11:35:52.201Z,260.18
2022-11-07T11:36:52.341Z,259.16
2022-11-07T11:37:52.495Z,260.18
2022-11-07T11:38:52.453Z,259.16
2022-11-07T11:39:52.541Z,259.36
2022-11-07T11:40:57.366Z,259.77
2022-11-07T11:41:52.728Z,258.55
2022-11-07T11:42:52.830Z,259.57
2022-11-07T11:43:59.203Z,259.36
2022-11-07T11:44:52.962Z,259.16
2022-11-07T11:45:53.043Z,258.76
2022-11-07T11:46:53.130Z,260.18
2022-11-07T11:47:53.197Z,259.36
2022-11-07T11:48:53.294Z,259.77
2022-11-07T11:49:53.400Z,258.35
2022-11-07T11:50:53.453Z,259.36
2022-11-07T11:51:53.516Z,260.59
2022-11-07T11:52:53.591Z,259.16
2022-11-07T11:53:53.668Z,258.35
2022-11-07T11:54:53.829Z,259.57
2022-11-07T11:55:53.829Z,259.57
2022-11-07T11:56:53.902Z,258.55
2022-11-07T11:57:53.978Z,259.36
2022-11-07T11:58:54.055Z,259.98
2022-11-07T11:59:54.152Z,258.96
2022-11-07T12:00:54.263Z,259.57
2022-11-07T12:01:54.383Z,259.36
2022-11-07T12:02:54.482Z,258.35
2022-11-07T12:03:54.495Z,258.35
2022-11-07T12:04:54.575Z,259.36
2022-11-07T12:05:54.742Z,258.55
2022-11-07T12:06:54.747Z,259.36
2022-11-07T12:07:54.810Z,259.36
2022-11-07T12:08:54.891Z,258.96
2022-11-07T12:09:54.965Z,258.55
2022-11-07T12:10:55.051Z,259.57
2022-11-07T12:11:55.238Z,260.18
2022-11-07T12:12:55.208Z,258.96
2022-11-07T12:13:55.297Z,259.77
2022-11-07T12:15:01.345Z,259.16
2022-11-07T12:15:55.472Z,259.16
2022-11-07T12:16:55.636Z,259.16
2022-11-07T12:17:55.596Z,259.57
2022-11-07T12:18:55.678Z,258.76
2022-11-07T12:19:55.765Z,259.36
2022-11-07T12:20:55.844Z,260.80
2022-11-07T12:21:55.935Z,259.77
2022-11-07T12:22:56.079Z,259.16
2022-11-07T12:23:56.093Z,259.57
2022-11-07T12:24:56.180Z,259.77
2022-11-07T12:25:56.256Z,258.76
2022-11-07T12:26:58.035Z,258.76
2022-11-07T12:27:56.406Z,258.96
2022-11-07T12:28:56.598Z,260.18
2022-11-07T12:29:56.565Z,259.16
2022-11-07T12:30:56.642Z,260.59
2022-11-07T12:31:56.764Z,260.39